sensor_id;sensor_type;location;lat;lon;timestamp;P1;durP1;ratioP1;P2;durP2;ratioP2
22628;SDS011;11481;53.694;9.910;2023-04-06T00:00:49;3.72;;;2.00;;
22628;SDS011;11481;53.694;9.910;2023-04-06T00:03:16;4.72;;;1.83;;
22628;SDS011;11481;53.694;9.910;2023-04-06T01:35:12;6.80;;;2.83;;
22628;SDS011;11481;53.694;9.910;2023-04-06T01:37:39;6.80;;;3.00;;
22628;SDS011;11481;53.694;9.910;2023-04-06T01:40:06;6.57;;;2.72;;
22628;SDS011;11481;53.694;9.910;2023-04-06T01:42:33;7.88;;;3.58;;
22628;SDS011;11481;53.694;9.910;2023-04-06T01:45:00;10.07;;;2.95;;
22628;SDS011;11481;53.694;9.910;2023-04-06T01:47:26;8.95;;;3.03;;
22628;SDS011;11481;53.694;9.910;2023-04-06T01:49:53;7.45;;;3.28;;
22628;SDS011;11481;53.694;9.910;2023-04-06T01:52:20;5.75;;;3.13;;
22628;SDS011;11481;53.694;9.910;2023-04-06T01:54:47;8.02;;;4.20;;
22628;SDS011;11481;53.694;9.910;2023-04-06T01:57:13;7.10;;;3.03;;
22628;SDS011;11481;53.694;9.910;2023-04-06T01:59:40;7.97;;;3.58;;
22628;SDS011;11481;53.694;9.910;2023-04-06T02:02:07;11.63;;;3.80;;
22628;SDS011;11481;53.694;9.910;2023-04-06T02:04:33;7.82;;;3.17;;
22628;SDS011;11481;53.694;9.910;2023-04-06T02:07:00;7.85;;;3.17;;
22628;SDS011;11481;53.694;9.910;2023-04-06T02:09:27;5.60;;;2.92;;
22628;SDS011;11481;53.694;9.910;2023-04-06T02:11:53;8.32;;;3.15;;
22628;SDS011;11481;53.694;9.910;2023-04-06T02:14:24;9.70;;;3.22;;
22628;SDS011;11481;53.694;9.910;2023-04-06T02:16:51;9.57;;;3.10;;
22628;SDS011;11481;53.694;9.910;2023-04-06T02:19:18;6.07;;;2.85;;
22628;SDS011;11481;53.694;9.910;2023-04-06T02:21:45;7.28;;;3.35;;
22628;SDS011;11481;53.694;9.910;2023-04-06T02:24:12;7.38;;;2.65;;
22628;SDS011;11481;53.694;9.910;2023-04-06T02:26:38;7.53;;;3.40;;
22628;SDS011;11481;53.694;9.910;2023-04-06T02:29:05;7.10;;;2.90;;
22628;SDS011;11481;53.694;9.910;2023-04-06T02:31:33;7.55;;;3.17;;
22628;SDS011;11481;53.694;9.910;2023-04-06T02:34:00;6.38;;;2.67;;
22628;SDS011;11481;53.694;9.910;2023-04-06T02:36:27;7.78;;;3.20;;
22628;SDS011;11481;53.694;9.910;2023-04-06T02:38:53;7.95;;;3.05;;
22628;SDS011;11481;53.694;9.910;2023-04-06T02:41:20;6.35;;;2.92;;
22628;SDS011;11481;53.694;9.910;2023-04-06T02:43:46;12.25;;;3.45;;
22628;SDS011;11481;53.694;9.910;2023-04-06T02:46:13;4.82;;;2.58;;
22628;SDS011;11481;53.694;9.910;2023-04-06T02:48:40;4.85;;;2.35;;
22628;SDS011;11481;53.694;9.910;2023-04-06T02:51:07;7.82;;;2.58;;
22628;SDS011;11481;53.694;9.910;2023-04-06T02:53:33;7.13;;;3.00;;
22628;SDS011;11481;53.694;9.910;2023-04-06T02:56:00;6.68;;;2.67;;
22628;SDS011;11481;53.694;9.910;2023-04-06T02:58:27;9.95;;;2.78;;
22628;SDS011;11481;53.694;9.910;2023-04-06T03:00:53;7.63;;;3.05;;
22628;SDS011;11481;53.694;9.910;2023-04-06T03:03:20;7.03;;;2.90;;
22628;SDS011;11481;53.694;9.910;2023-04-06T03:05:47;9.82;;;3.35;;
22628;SDS011;11481;53.694;9.910;2023-04-06T03:08:14;9.45;;;3.17;;
22628;SDS011;11481;53.694;9.910;2023-04-06T03:10:41;6.00;;;3.47;;
22628;SDS011;11481;53.694;9.910;2023-04-06T03:13:08;8.35;;;2.83;;
22628;SDS011;11481;53.694;9.910;2023-04-06T03:15:34;6.47;;;2.90;;
22628;SDS011;11481;53.694;9.910;2023-04-06T03:18:01;8.02;;;3.22;;
22628;SDS011;11481;53.694;9.910;2023-04-06T03:20:28;5.18;;;2.33;;
22628;SDS011;11481;53.694;9.910;2023-04-06T03:22:55;7.05;;;3.03;;
22628;SDS011;11481;53.694;9.910;2023-04-06T03:25:21;7.88;;;3.58;;
22628;SDS011;11481;53.694;9.910;2023-04-06T03:27:48;6.40;;;3.22;;
22628;SDS011;11481;53.694;9.910;2023-04-06T03:30:15;6.70;;;3.25;;
22628;SDS011;11481;53.694;9.910;2023-04-06T03:32:44;8.57;;;3.67;;
22628;SDS011;11481;53.694;9.910;2023-04-06T03:35:11;6.18;;;3.40;;
22628;SDS011;11481;53.694;9.910;2023-04-06T03:37:37;8.57;;;3.10;;
22628;SDS011;11481;53.694;9.910;2023-04-06T03:40:04;9.20;;;2.97;;
22628;SDS011;11481;53.694;9.910;2023-04-06T03:42:31;7.60;;;3.33;;
22628;SDS011;11481;53.694;9.910;2023-04-06T03:44:58;5.85;;;2.88;;
22628;SDS011;11481;53.694;9.910;2023-04-06T03:47:25;6.47;;;3.03;;
22628;SDS011;11481;53.694;9.910;2023-04-06T03:49:52;8.38;;;3.20;;
22628;SDS011;11481;53.694;9.910;2023-04-06T03:52:18;6.90;;;3.17;;
22628;SDS011;11481;53.694;9.910;2023-04-06T03:54:45;5.63;;;2.63;;
22628;SDS011;11481;53.694;9.910;2023-04-06T03:57:12;8.25;;;3.42;;
22628;SDS011;11481;53.694;9.910;2023-04-06T03:59:38;9.32;;;3.40;;
22628;SDS011;11481;53.694;9.910;2023-04-06T04:02:05;9.20;;;3.10;;
22628;SDS011;11481;53.694;9.910;2023-04-06T04:04:32;6.68;;;3.00;;
22628;SDS011;11481;53.694;9.910;2023-04-06T04:06:59;6.13;;;2.80;;
22628;SDS011;11481;53.694;9.910;2023-04-06T04:09:26;10.60;;;3.60;;
22628;SDS011;11481;53.694;9.910;2023-04-06T04:11:55;7.57;;;2.80;;
22628;SDS011;11481;53.694;9.910;2023-04-06T04:14:21;5.82;;;2.90;;
22628;SDS011;11481;53.694;9.910;2023-04-06T04:16:48;5.88;;;2.70;;
22628;SDS011;11481;53.694;9.910;2023-04-06T04:19:15;5.97;;;2.65;;
22628;SDS011;11481;53.694;9.910;2023-04-06T04:21:45;8.40;;;3.33;;
22628;SDS011;11481;53.694;9.910;2023-04-06T04:24:12;9.27;;;3.35;;
22628;SDS011;11481;53.694;9.910;2023-04-06T04:26:39;9.07;;;3.30;;
22628;SDS011;11481;53.694;9.910;2023-04-06T04:29:06;8.82;;;3.42;;
22628;SDS011;11481;53.694;9.910;2023-04-06T04:31:33;7.50;;;3.22;;
22628;SDS011;11481;53.694;9.910;2023-04-06T04:34:00;7.20;;;3.00;;
22628;SDS011;11481;53.694;9.910;2023-04-06T04:36:27;5.72;;;2.95;;
22628;SDS011;11481;53.694;9.910;2023-04-06T04:38:54;6.03;;;2.90;;
22628;SDS011;11481;53.694;9.910;2023-04-06T04:41:21;8.07;;;3.65;;
22628;SDS011;11481;53.694;9.910;2023-04-06T04:43:48;8.82;;;3.55;;
22628;SDS011;11481;53.694;9.910;2023-04-06T04:46:14;8.10;;;3.20;;
22628;SDS011;11481;53.694;9.910;2023-04-06T04:48:41;8.38;;;3.13;;
22628;SDS011;11481;53.694;9.910;2023-04-06T04:51:08;7.32;;;3.20;;
22628;SDS011;11481;53.694;9.910;2023-04-06T04:53:35;9.18;;;3.40;;
22628;SDS011;11481;53.694;9.910;2023-04-06T04:56:01;8.98;;;3.65;;
22628;SDS011;11481;53.694;9.910;2023-04-06T04:58:29;6.57;;;2.78;;
22628;SDS011;11481;53.694;9.910;2023-04-06T05:00:56;7.25;;;2.92;;
22628;SDS011;11481;53.694;9.910;2023-04-06T05:03:23;8.38;;;3.08;;
22628;SDS011;11481;53.694;9.910;2023-04-06T05:05:52;8.25;;;3.40;;
22628;SDS011;11481;53.694;9.910;2023-04-06T05:08:18;6.75;;;3.17;;
22628;SDS011;11481;53.694;9.910;2023-04-06T05:10:45;10.18;;;4.20;;
22628;SDS011;11481;53.694;9.910;2023-04-06T05:13:12;7.18;;;3.10;;
22628;SDS011;11481;53.694;9.910;2023-04-06T05:15:39;9.57;;;3.63;;
22628;SDS011;11481;53.694;9.910;2023-04-06T05:18:07;8.40;;;3.83;;
22628;SDS011;11481;53.694;9.910;2023-04-06T05:20:34;7.82;;;3.58;;
22628;SDS011;11481;53.694;9.910;2023-04-06T05:23:02;8.88;;;3.95;;
22628;SDS011;11481;53.694;9.910;2023-04-06T05:25:29;10.02;;;3.78;;
22628;SDS011;11481;53.694;9.910;2023-04-06T05:27:57;12.65;;;4.05;;
22628;SDS011;11481;53.694;9.910;2023-04-06T05:30:23;11.45;;;3.80;;
22628;SDS011;11481;53.694;9.910;2023-04-06T05:32:50;10.57;;;4.07;;
22628;SDS011;11481;53.694;9.910;2023-04-06T05:35:17;10.00;;;3.22;;
22628;SDS011;11481;53.694;9.910;2023-04-06T05:37:44;7.82;;;3.58;;
22628;SDS011;11481;53.694;9.910;2023-04-06T05:40:11;9.40;;;3.72;;
22628;SDS011;11481;53.694;9.910;2023-04-06T05:42:38;8.55;;;3.67;;
22628;SDS011;11481;53.694;9.910;2023-04-06T05:45:09;7.22;;;3.40;;
22628;SDS011;11481;53.694;9.910;2023-04-06T05:47:46;7.50;;;3.08;;
22628;SDS011;11481;53.694;9.910;2023-04-06T05:50:14;7.53;;;3.42;;
22628;SDS011;11481;53.694;9.910;2023-04-06T05:52:41;8.38;;;4.50;;
22628;SDS011;11481;53.694;9.910;2023-04-06T05:55:09;9.43;;;4.35;;
22628;SDS011;11481;53.694;9.910;2023-04-06T05:57:37;7.35;;;4.18;;
22628;SDS011;11481;53.694;9.910;2023-04-06T06:00:04;9.32;;;4.15;;
22628;SDS011;11481;53.694;9.910;2023-04-06T06:02:33;10.55;;;4.05;;
22628;SDS011;11481;53.694;9.910;2023-04-06T06:05:00;8.52;;;4.10;;
22628;SDS011;11481;53.694;9.910;2023-04-06T06:07:27;7.10;;;3.47;;
22628;SDS011;11481;53.694;9.910;2023-04-06T06:09:57;10.77;;;4.30;;
22628;SDS011;11481;53.694;9.910;2023-04-06T06:12:24;11.15;;;4.68;;
22628;SDS011;11481;53.694;9.910;2023-04-06T06:14:51;8.20;;;4.35;;
22628;SDS011;11481;53.694;9.910;2023-04-06T06:17:17;12.60;;;4.80;;
22628;SDS011;11481;53.694;9.910;2023-04-06T06:19:44;11.23;;;4.13;;
22628;SDS011;11481;53.694;9.910;2023-04-06T06:22:11;9.07;;;4.28;;
22628;SDS011;11481;53.694;9.910;2023-04-06T06:24:37;9.13;;;4.07;;
22628;SDS011;11481;53.694;9.910;2023-04-06T06:27:04;10.07;;;4.05;;
22628;SDS011;11481;53.694;9.910;2023-04-06T06:29:31;10.77;;;4.28;;
22628;SDS011;11481;53.694;9.910;2023-04-06T06:31:57;10.75;;;4.43;;
22628;SDS011;11481;53.694;9.910;2023-04-06T06:34:24;10.57;;;4.32;;
22628;SDS011;11481;53.694;9.910;2023-04-06T06:36:52;9.63;;;4.95;;
22628;SDS011;11481;53.694;9.910;2023-04-06T06:39:21;10.85;;;4.68;;
22628;SDS011;11481;53.694;9.910;2023-04-06T06:41:47;9.55;;;4.40;;
22628;SDS011;11481;53.694;9.910;2023-04-06T06:44:16;9.45;;;5.00;;
22628;SDS011;11481;53.694;9.910;2023-04-06T06:46:43;13.25;;;5.13;;
22628;SDS011;11481;53.694;9.910;2023-04-06T06:49:10;12.38;;;5.30;;
22628;SDS011;11481;53.694;9.910;2023-04-06T06:51:38;11.57;;;5.22;;
22628;SDS011;11481;53.694;9.910;2023-04-06T06:54:05;15.13;;;6.45;;
22628;SDS011;11481;53.694;9.910;2023-04-06T06:56:33;13.93;;;5.43;;
22628;SDS011;11481;53.694;9.910;2023-04-06T06:59:01;13.40;;;6.07;;
22628;SDS011;11481;53.694;9.910;2023-04-06T07:01:28;13.80;;;5.72;;
22628;SDS011;11481;53.694;9.910;2023-04-06T07:03:55;10.65;;;5.05;;
22628;SDS011;11481;53.694;9.910;2023-04-06T07:06:23;13.63;;;5.55;;
22628;SDS011;11481;53.694;9.910;2023-04-06T07:08:50;13.57;;;5.63;;
22628;SDS011;11481;53.694;9.910;2023-04-06T07:11:18;13.35;;;5.70;;
22628;SDS011;11481;53.694;9.910;2023-04-06T07:13:45;12.27;;;5.35;;
22628;SDS011;11481;53.694;9.910;2023-04-06T07:16:12;12.60;;;5.97;;
22628;SDS011;11481;53.694;9.910;2023-04-06T07:18:39;13.88;;;6.60;;
22628;SDS011;11481;53.694;9.910;2023-04-06T07:21:05;15.07;;;5.22;;
22628;SDS011;11481;53.694;9.910;2023-04-06T07:23:32;10.70;;;5.07;;
22628;SDS011;11481;53.694;9.910;2023-04-06T07:25:59;12.80;;;5.85;;
22628;SDS011;11481;53.694;9.910;2023-04-06T07:28:26;14.23;;;5.40;;
22628;SDS011;11481;53.694;9.910;2023-04-06T07:30:53;13.90;;;5.18;;
22628;SDS011;11481;53.694;9.910;2023-04-06T07:33:20;15.07;;;6.68;;
22628;SDS011;11481;53.694;9.910;2023-04-06T07:35:47;12.20;;;5.70;;
22628;SDS011;11481;53.694;9.910;2023-04-06T07:38:14;13.60;;;6.15;;
22628;SDS011;11481;53.694;9.910;2023-04-06T07:40:40;12.57;;;5.00;;
22628;SDS011;11481;53.694;9.910;2023-04-06T07:43:07;10.93;;;4.90;;
22628;SDS011;11481;53.694;9.910;2023-04-06T07:45:34;11.27;;;4.18;;
22628;SDS011;11481;53.694;9.910;2023-04-06T07:48:00;9.93;;;4.82;;
22628;SDS011;11481;53.694;9.910;2023-04-06T07:50:27;9.25;;;4.50;;
22628;SDS011;11481;53.694;9.910;2023-04-06T07:52:54;13.27;;;5.20;;
22628;SDS011;11481;53.694;9.910;2023-04-06T07:55:21;7.88;;;4.30;;
22628;SDS011;11481;53.694;9.910;2023-04-06T07:57:47;8.70;;;3.97;;
22628;SDS011;11481;53.694;9.910;2023-04-06T08:00:14;8.40;;;4.22;;
22628;SDS011;11481;53.694;9.910;2023-04-06T08:02:43;8.43;;;3.80;;
22628;SDS011;11481;53.694;9.910;2023-04-06T08:05:10;10.68;;;4.22;;
22628;SDS011;11481;53.694;9.910;2023-04-06T08:07:37;10.38;;;4.25;;
22628;SDS011;11481;53.694;9.910;2023-04-06T08:10:04;10.57;;;4.47;;
22628;SDS011;11481;53.694;9.910;2023-04-06T08:12:32;9.05;;;4.03;;
22628;SDS011;11481;53.694;9.910;2023-04-06T08:14:59;7.30;;;3.45;;
22628;SDS011;11481;53.694;9.910;2023-04-06T08:17:26;11.30;;;4.07;;
22628;SDS011;11481;53.694;9.910;2023-04-06T08:19:56;6.40;;;3.28;;
22628;SDS011;11481;53.694;9.910;2023-04-06T08:22:23;9.55;;;3.92;;
22628;SDS011;11481;53.694;9.910;2023-04-06T08:24:50;10.05;;;3.78;;
22628;SDS011;11481;53.694;9.910;2023-04-06T08:27:17;11.55;;;4.05;;
22628;SDS011;11481;53.694;9.910;2023-04-06T08:29:44;10.45;;;4.32;;
22628;SDS011;11481;53.694;9.910;2023-04-06T08:32:11;10.68;;;4.28;;
22628;SDS011;11481;53.694;9.910;2023-04-06T08:34:37;11.77;;;3.63;;
22628;SDS011;11481;53.694;9.910;2023-04-06T08:37:04;6.68;;;3.15;;
22628;SDS011;11481;53.694;9.910;2023-04-06T08:39:31;8.85;;;2.80;;
22628;SDS011;11481;53.694;9.910;2023-04-06T08:42:00;7.10;;;3.13;;
22628;SDS011;11481;53.694;9.910;2023-04-06T08:44:29;7.78;;;3.72;;
22628;SDS011;11481;53.694;9.910;2023-04-06T08:46:59;8.90;;;3.55;;
22628;SDS011;11481;53.694;9.910;2023-04-06T08:49:26;6.88;;;3.30;;
22628;SDS011;11481;53.694;9.910;2023-04-06T08:51:54;8.38;;;3.08;;
22628;SDS011;11481;53.694;9.910;2023-04-06T08:54:22;5.53;;;2.78;;
22628;SDS011;11481;53.694;9.910;2023-04-06T08:56:48;8.02;;;3.03;;
22628;SDS011;11481;53.694;9.910;2023-04-06T08:59:15;6.90;;;2.80;;
22628;SDS011;11481;53.694;9.910;2023-04-06T09:01:43;6.78;;;2.60;;
22628;SDS011;11481;53.694;9.910;2023-04-06T09:04:12;5.03;;;2.50;;
22628;SDS011;11481;53.694;9.910;2023-04-06T09:06:39;10.43;;;3.20;;
22628;SDS011;11481;53.694;9.910;2023-04-06T09:09:07;6.35;;;2.55;;
22628;SDS011;11481;53.694;9.910;2023-04-06T09:11:42;7.13;;;3.35;;
22628;SDS011;11481;53.694;9.910;2023-04-06T09:14:13;6.85;;;2.45;;
22628;SDS011;11481;53.694;9.910;2023-04-06T09:16:41;6.88;;;2.72;;
22628;SDS011;11481;53.694;9.910;2023-04-06T09:19:09;7.93;;;2.83;;
22628;SDS011;11481;53.694;9.910;2023-04-06T09:21:37;6.10;;;2.50;;
22628;SDS011;11481;53.694;9.910;2023-04-06T09:24:06;6.65;;;2.55;;
22628;SDS011;11481;53.694;9.910;2023-04-06T09:26:44;6.35;;;2.63;;
22628;SDS011;11481;53.694;9.910;2023-04-06T09:29:22;5.75;;;2.85;;
22628;SDS011;11481;53.694;9.910;2023-04-06T09:32:01;6.78;;;3.05;;
22628;SDS011;11481;53.694;9.910;2023-04-06T09:34:31;5.70;;;2.67;;
22628;SDS011;11481;53.694;9.910;2023-04-06T09:36:59;5.55;;;2.53;;
22628;SDS011;11481;53.694;9.910;2023-04-06T09:39:28;5.78;;;2.42;;
22628;SDS011;11481;53.694;9.910;2023-04-06T09:41:56;5.97;;;2.88;;
22628;SDS011;11481;53.694;9.910;2023-04-06T09:44:23;7.28;;;2.70;;
22628;SDS011;11481;53.694;9.910;2023-04-06T09:46:51;8.52;;;3.05;;
22628;SDS011;11481;53.694;9.910;2023-04-06T09:49:29;5.22;;;2.42;;
22628;SDS011;11481;53.694;9.910;2023-04-06T09:52:01;6.30;;;2.53;;
22628;SDS011;11481;53.694;9.910;2023-04-06T09:54:29;6.97;;;3.15;;
22628;SDS011;11481;53.694;9.910;2023-04-06T10:05:09;7.07;;;2.97;;
22628;SDS011;11481;53.694;9.910;2023-04-06T10:07:45;6.55;;;3.28;;
22628;SDS011;11481;53.694;9.910;2023-04-06T10:10:26;6.75;;;2.88;;
22628;SDS011;11481;53.694;9.910;2023-04-06T10:12:54;8.55;;;3.13;;
22628;SDS011;11481;53.694;9.910;2023-04-06T10:15:22;7.25;;;3.28;;
22628;SDS011;11481;53.694;9.910;2023-04-06T10:17:49;6.53;;;2.83;;
22628;SDS011;11481;53.694;9.910;2023-04-06T10:25:28;9.93;;;3.53;;
22628;SDS011;11481;53.694;9.910;2023-04-06T10:30:34;5.28;;;2.90;;
22628;SDS011;11481;53.694;9.910;2023-04-06T10:33:14;6.80;;;3.10;;
22628;SDS011;11481;53.694;9.910;2023-04-06T10:35:41;10.55;;;3.50;;
22628;SDS011;11481;53.694;9.910;2023-04-06T10:38:08;8.00;;;2.90;;
22628;SDS011;11481;53.694;9.910;2023-04-06T10:40:36;8.90;;;3.40;;
22628;SDS011;11481;53.694;9.910;2023-04-06T10:43:07;5.65;;;2.80;;
22628;SDS011;11481;53.694;9.910;2023-04-06T10:45:36;5.68;;;2.78;;
22628;SDS011;11481;53.694;9.910;2023-04-06T10:48:17;5.30;;;2.70;;
22628;SDS011;11481;53.694;9.910;2023-04-06T10:50:46;5.00;;;2.67;;
22628;SDS011;11481;53.694;9.910;2023-04-06T10:53:24;4.90;;;2.55;;
22628;SDS011;11481;53.694;9.910;2023-04-06T10:55:53;6.28;;;2.58;;
22628;SDS011;11481;53.694;9.910;2023-04-06T10:58:25;6.40;;;3.08;;
22628;SDS011;11481;53.694;9.910;2023-04-06T11:00:53;6.22;;;2.80;;
22628;SDS011;11481;53.694;9.910;2023-04-06T11:03:21;7.25;;;3.30;;
22628;SDS011;11481;53.694;9.910;2023-04-06T11:05:49;8.60;;;3.08;;
22628;SDS011;11481;53.694;9.910;2023-04-06T11:11:07;10.88;;;3.90;;
22628;SDS011;11481;53.694;9.910;2023-04-06T11:13:36;7.00;;;3.60;;
22628;SDS011;11481;53.694;9.910;2023-04-06T11:16:16;8.20;;;3.80;;
22628;SDS011;11481;53.694;9.910;2023-04-06T11:21:16;9.35;;;3.58;;
22628;SDS011;11481;53.694;9.910;2023-04-06T11:23:43;8.50;;;3.83;;
22628;SDS011;11481;53.694;9.910;2023-04-06T11:26:11;10.70;;;3.97;;
22628;SDS011;11481;53.694;9.910;2023-04-06T11:28:42;18.27;;;4.50;;
22628;SDS011;11481;53.694;9.910;2023-04-06T11:31:11;6.70;;;3.58;;
22628;SDS011;11481;53.694;9.910;2023-04-06T11:33:38;11.88;;;3.85;;
22628;SDS011;11481;53.694;9.910;2023-04-06T11:36:05;9.13;;;4.10;;
22628;SDS011;11481;53.694;9.910;2023-04-06T11:38:33;8.02;;;4.18;;
22628;SDS011;11481;53.694;9.910;2023-04-06T11:41:02;7.25;;;3.60;;
22628;SDS011;11481;53.694;9.910;2023-04-06T11:43:29;8.68;;;4.10;;
22628;SDS011;11481;53.694;9.910;2023-04-06T11:46:01;8.52;;;3.92;;
22628;SDS011;11481;53.694;9.910;2023-04-06T11:48:30;8.23;;;4.13;;
22628;SDS011;11481;53.694;9.910;2023-04-06T11:50:58;8.48;;;4.32;;
22628;SDS011;11481;53.694;9.910;2023-04-06T11:53:30;8.13;;;4.20;;
22628;SDS011;11481;53.694;9.910;2023-04-06T11:56:00;8.13;;;4.00;;
22628;SDS011;11481;53.694;9.910;2023-04-06T11:58:27;12.50;;;4.93;;
22628;SDS011;11481;53.694;9.910;2023-04-06T12:01:02;7.90;;;4.03;;
22628;SDS011;11481;53.694;9.910;2023-04-06T12:03:30;8.45;;;3.90;;
22628;SDS011;11481;53.694;9.910;2023-04-06T12:05:57;9.10;;;4.10;;
22628;SDS011;11481;53.694;9.910;2023-04-06T12:08:25;14.23;;;4.38;;
22628;SDS011;11481;53.694;9.910;2023-04-06T12:10:52;10.70;;;5.28;;
22628;SDS011;11481;53.694;9.910;2023-04-06T12:13:18;12.95;;;4.10;;
22628;SDS011;11481;53.694;9.910;2023-04-06T12:15:46;9.90;;;4.72;;
22628;SDS011;11481;53.694;9.910;2023-04-06T12:18:13;9.00;;;4.28;;
22628;SDS011;11481;53.694;9.910;2023-04-06T12:20:39;9.25;;;4.40;;
22628;SDS011;11481;53.694;9.910;2023-04-06T12:23:06;9.77;;;4.45;;
22628;SDS011;11481;53.694;9.910;2023-04-06T12:25:33;8.70;;;4.25;;
22628;SDS011;11481;53.694;9.910;2023-04-06T12:28:00;9.02;;;4.38;;
22628;SDS011;11481;53.694;9.910;2023-04-06T12:30:26;9.88;;;4.50;;
22628;SDS011;11481;53.694;9.910;2023-04-06T12:32:55;8.73;;;4.30;;
22628;SDS011;11481;53.694;9.910;2023-04-06T12:35:21;11.13;;;4.47;;
22628;SDS011;11481;53.694;9.910;2023-04-06T12:37:48;9.05;;;3.85;;
22628;SDS011;11481;53.694;9.910;2023-04-06T12:40:15;13.20;;;4.70;;
22628;SDS011;11481;53.694;9.910;2023-04-06T12:42:41;10.93;;;4.45;;
22628;SDS011;11481;53.694;9.910;2023-04-06T12:45:08;9.40;;;3.58;;
22628;SDS011;11481;53.694;9.910;2023-04-06T12:47:36;9.70;;;4.78;;
22628;SDS011;11481;53.694;9.910;2023-04-06T12:50:04;8.63;;;3.92;;
22628;SDS011;11481;53.694;9.910;2023-04-06T12:52:32;10.38;;;4.32;;
22628;SDS011;11481;53.694;9.910;2023-04-06T12:55:02;7.90;;;4.07;;
22628;SDS011;11481;53.694;9.910;2023-04-06T12:57:30;9.43;;;4.22;;
22628;SDS011;11481;53.694;9.910;2023-04-06T12:59:57;9.93;;;4.82;;
22628;SDS011;11481;53.694;9.910;2023-04-06T13:02:24;8.65;;;4.60;;
22628;SDS011;11481;53.694;9.910;2023-04-06T13:04:52;7.97;;;4.20;;
22628;SDS011;11481;53.694;9.910;2023-04-06T13:07:19;8.27;;;4.47;;
22628;SDS011;11481;53.694;9.910;2023-04-06T13:09:45;8.02;;;4.32;;
22628;SDS011;11481;53.694;9.910;2023-04-06T13:12:13;9.77;;;4.25;;
22628;SDS011;11481;53.694;9.910;2023-04-06T13:14:40;6.75;;;3.75;;
22628;SDS011;11481;53.694;9.910;2023-04-06T13:17:06;7.60;;;3.88;;
22628;SDS011;11481;53.694;9.910;2023-04-06T13:19:33;9.98;;;4.43;;
22628;SDS011;11481;53.694;9.910;2023-04-06T13:22:00;10.18;;;4.68;;
22628;SDS011;11481;53.694;9.910;2023-04-06T13:24:27;9.98;;;4.45;;
22628;SDS011;11481;53.694;9.910;2023-04-06T13:26:54;12.70;;;4.47;;
22628;SDS011;11481;53.694;9.910;2023-04-06T13:29:21;8.95;;;4.85;;
22628;SDS011;11481;53.694;9.910;2023-04-06T13:31:48;10.82;;;4.88;;
22628;SDS011;11481;53.694;9.910;2023-04-06T13:34:14;12.13;;;5.20;;
22628;SDS011;11481;53.694;9.910;2023-04-06T13:36:41;10.00;;;4.57;;
22628;SDS011;11481;53.694;9.910;2023-04-06T13:39:08;10.68;;;4.65;;
22628;SDS011;11481;53.694;9.910;2023-04-06T13:41:36;9.20;;;4.57;;
22628;SDS011;11481;53.694;9.910;2023-04-06T13:44:03;9.55;;;4.63;;
22628;SDS011;11481;53.694;9.910;2023-04-06T13:46:30;10.98;;;4.80;;
22628;SDS011;11481;53.694;9.910;2023-04-06T13:48:57;10.02;;;4.82;;
22628;SDS011;11481;53.694;9.910;2023-04-06T13:51:23;9.82;;;4.78;;
22628;SDS011;11481;53.694;9.910;2023-04-06T13:53:50;11.68;;;5.25;;
22628;SDS011;11481;53.694;9.910;2023-04-06T13:56:18;8.15;;;4.22;;
22628;SDS011;11481;53.694;9.910;2023-04-06T13:58:45;13.68;;;5.03;;
22628;SDS011;11481;53.694;9.910;2023-04-06T14:01:12;9.45;;;4.60;;
22628;SDS011;11481;53.694;9.910;2023-04-06T14:03:39;11.40;;;5.18;;
22628;SDS011;11481;53.694;9.910;2023-04-06T14:06:12;8.43;;;4.43;;
22628;SDS011;11481;53.694;9.910;2023-04-06T14:08:56;10.13;;;4.75;;
22628;SDS011;11481;53.694;9.910;2023-04-06T14:11:23;9.82;;;4.85;;
22628;SDS011;11481;53.694;9.910;2023-04-06T14:13:52;11.48;;;4.90;;
22628;SDS011;11481;53.694;9.910;2023-04-06T14:16:22;9.95;;;4.85;;
22628;SDS011;11481;53.694;9.910;2023-04-06T14:18:49;7.13;;;4.07;;
22628;SDS011;11481;53.694;9.910;2023-04-06T14:21:17;9.70;;;4.90;;
22628;SDS011;11481;53.694;9.910;2023-04-06T14:23:44;9.63;;;4.80;;
22628;SDS011;11481;53.694;9.910;2023-04-06T14:26:12;10.00;;;4.90;;
22628;SDS011;11481;53.694;9.910;2023-04-06T14:28:41;8.73;;;4.53;;
22628;SDS011;11481;53.694;9.910;2023-04-06T14:31:14;8.77;;;4.60;;
22628;SDS011;11481;53.694;9.910;2023-04-06T14:33:42;8.82;;;4.70;;
22628;SDS011;11481;53.694;9.910;2023-04-06T14:36:09;9.40;;;4.70;;
22628;SDS011;11481;53.694;9.910;2023-04-06T14:38:37;16.05;;;5.50;;
22628;SDS011;11481;53.694;9.910;2023-04-06T14:41:05;10.38;;;4.70;;
22628;SDS011;11481;53.694;9.910;2023-04-06T14:43:32;10.85;;;5.32;;
22628;SDS011;11481;53.694;9.910;2023-04-06T14:46:02;10.77;;;5.03;;
22628;SDS011;11481;53.694;9.910;2023-04-06T14:48:29;8.05;;;4.75;;
22628;SDS011;11481;53.694;9.910;2023-04-06T14:50:56;10.43;;;4.97;;
22628;SDS011;11481;53.694;9.910;2023-04-06T14:53:24;8.70;;;4.47;;
22628;SDS011;11481;53.694;9.910;2023-04-06T14:55:52;9.65;;;5.25;;
22628;SDS011;11481;53.694;9.910;2023-04-06T14:58:20;8.95;;;4.78;;
22628;SDS011;11481;53.694;9.910;2023-04-06T15:00:48;10.77;;;4.90;;
22628;SDS011;11481;53.694;9.910;2023-04-06T15:03:15;13.55;;;5.25;;
22628;SDS011;11481;53.694;9.910;2023-04-06T15:05:42;10.18;;;4.88;;
22628;SDS011;11481;53.694;9.910;2023-04-06T15:08:09;10.25;;;4.82;;
22628;SDS011;11481;53.694;9.910;2023-04-06T15:10:35;12.63;;;5.35;;
22628;SDS011;11481;53.694;9.910;2023-04-06T15:13:02;10.77;;;5.00;;
22628;SDS011;11481;53.694;9.910;2023-04-06T15:15:29;9.63;;;5.07;;
22628;SDS011;11481;53.694;9.910;2023-04-06T15:17:56;12.65;;;5.13;;
22628;SDS011;11481;53.694;9.910;2023-04-06T15:20:22;9.55;;;4.57;;
22628;SDS011;11481;53.694;9.910;2023-04-06T15:22:49;8.65;;;4.65;;
22628;SDS011;11481;53.694;9.910;2023-04-06T15:25:16;10.30;;;4.93;;
22628;SDS011;11481;53.694;9.910;2023-04-06T15:27:43;8.38;;;4.60;;
22628;SDS011;11481;53.694;9.910;2023-04-06T15:30:10;7.43;;;4.28;;
22628;SDS011;11481;53.694;9.910;2023-04-06T15:32:37;11.95;;;5.57;;
22628;SDS011;11481;53.694;9.910;2023-04-06T15:35:10;10.80;;;5.30;;
22628;SDS011;11481;53.694;9.910;2023-04-06T15:37:37;11.52;;;4.97;;
22628;SDS011;11481;53.694;9.910;2023-04-06T15:40:04;8.35;;;5.10;;
22628;SDS011;11481;53.694;9.910;2023-04-06T15:42:32;8.57;;;4.80;;
22628;SDS011;11481;53.694;9.910;2023-04-06T15:44:58;11.52;;;5.28;;
22628;SDS011;11481;53.694;9.910;2023-04-06T15:47:25;9.93;;;4.93;;
22628;SDS011;11481;53.694;9.910;2023-04-06T15:49:52;9.85;;;5.05;;
22628;SDS011;11481;53.694;9.910;2023-04-06T15:52:18;10.73;;;5.47;;
22628;SDS011;11481;53.694;9.910;2023-04-06T15:54:46;12.75;;;5.20;;
22628;SDS011;11481;53.694;9.910;2023-04-06T15:57:12;10.88;;;4.75;;
22628;SDS011;11481;53.694;9.910;2023-04-06T15:59:39;8.93;;;4.85;;
22628;SDS011;11481;53.694;9.910;2023-04-06T16:02:06;8.90;;;5.05;;
22628;SDS011;11481;53.694;9.910;2023-04-06T16:04:33;11.43;;;5.38;;
22628;SDS011;11481;53.694;9.910;2023-04-06T16:07:00;12.25;;;5.53;;
22628;SDS011;11481;53.694;9.910;2023-04-06T16:09:26;8.98;;;4.60;;
22628;SDS011;11481;53.694;9.910;2023-04-06T16:11:53;10.90;;;5.05;;
22628;SDS011;11481;53.694;9.910;2023-04-06T16:14:20;10.60;;;4.90;;
22628;SDS011;11481;53.694;9.910;2023-04-06T16:16:46;8.82;;;4.75;;
22628;SDS011;11481;53.694;9.910;2023-04-06T16:19:14;10.48;;;5.03;;
22628;SDS011;11481;53.694;9.910;2023-04-06T16:21:41;10.93;;;5.22;;
22628;SDS011;11481;53.694;9.910;2023-04-06T16:24:08;12.10;;;5.35;;
22628;SDS011;11481;53.694;9.910;2023-04-06T16:26:34;10.50;;;4.97;;
22628;SDS011;11481;53.694;9.910;2023-04-06T16:29:01;8.32;;;4.80;;
22628;SDS011;11481;53.694;9.910;2023-04-06T16:31:28;10.32;;;5.25;;
22628;SDS011;11481;53.694;9.910;2023-04-06T16:33:55;10.52;;;5.07;;
22628;SDS011;11481;53.694;9.910;2023-04-06T16:38:57;10.15;;;4.88;;